UAL510 KLAX-KSFO
Flight info
| Callsign | UAL510 |
|---|---|
| Flight time | N/A |
| Altitude | 34000 |
| Route | SUMMR2 STOKD SERFR SERFR4 |
| Aircraft | B738/M-SDE2E3FGHIRWXY/LB1 |
Departure
| Time | 2026-04-26 17:03 |
|---|---|
| Airport | Los Angeles International Airport (KLAX) |
Arrival
| Time | N/A |
|---|---|
| Airport | San Francisco International Airport (KSFO) |
| Time | Latitude | Longitude | Altitude | Speed | Heading |
|---|---|---|---|---|---|
| 2026-04-26 16:43 | 33.94153 | -118.39893 | 125 ft | 0 kts | 272° |
| 2026-04-26 16:50 | 33.94153 | -118.39880 | 120 ft | 2 kts | 272° |
| 2026-04-26 16:50 | 33.94152 | -118.39861 | 123 ft | 2 kts | 265° |
| 2026-04-26 16:50 | 33.94158 | -118.39844 | 121 ft | 2 kts | 215° |
| 2026-04-26 16:51 | 33.94172 | -118.39838 | 120 ft | 0 kts | 175° |
| 2026-04-26 16:56 | 33.94162 | -118.39837 | 121 ft | 3 kts | 175° |
| 2026-04-26 16:56 | 33.94133 | -118.39834 | 123 ft | 5 kts | 176° |
| 2026-04-26 16:56 | 33.94086 | -118.39830 | 121 ft | 8 kts | 176° |
| 2026-04-26 16:57 | 33.94023 | -118.39825 | 122 ft | 10 kts | 175° |
| 2026-04-26 16:57 | 33.94009 | -118.39824 | 122 ft | 2 kts | 175° |
| 2026-04-26 16:57 | 33.93928 | -118.39793 | 124 ft | 7 kts | 138° |
| 2026-04-26 16:58 | 33.93905 | -118.39739 | 123 ft | 8 kts | 97° |
| 2026-04-26 16:58 | 33.93909 | -118.39691 | 125 ft | 9 kts | 82° |
| 2026-04-26 16:58 | 33.93933 | -118.39463 | 125 ft | 14 kts | 83° |
| 2026-04-26 16:59 | 33.93944 | -118.39338 | 125 ft | 15 kts | 83° |
| 2026-04-26 16:59 | 33.93970 | -118.39094 | 122 ft | 14 kts | 83° |
| 2026-04-26 17:00 | 33.93994 | -118.38871 | 125 ft | 13 kts | 82° |
| 2026-04-26 17:00 | 33.94015 | -118.38660 | 124 ft | 12 kts | 83° |
| 2026-04-26 17:00 | 33.94025 | -118.38560 | 125 ft | 12 kts | 83° |
| 2026-04-26 17:01 | 33.94034 | -118.38462 | 123 ft | 12 kts | 83° |
| 2026-04-26 17:01 | 33.94040 | -118.38365 | 121 ft | 11 kts | 110° |
| 2026-04-26 17:01 | 33.93975 | -118.38327 | 123 ft | 11 kts | 186° |
| 2026-04-26 17:01 | 33.93948 | -118.38387 | 125 ft | 0 kts | 264° |
| 2026-04-26 17:02 | 33.93931 | -118.38580 | 125 ft | 57 kts | 263° |
| 2026-04-26 17:03 | 33.93848 | -118.39385 | 128 ft | 133 kts | 263° |
| 2026-04-26 17:03 | 33.93733 | -118.40558 | 752 ft | 149 kts | 262° |
| 2026-04-26 17:03 | 33.93591 | -118.41897 | 1433 ft | 174 kts | 264° |
| 2026-04-26 17:03 | 33.93446 | -118.43333 | 2359 ft | 183 kts | 264° |
| 2026-04-26 17:04 | 33.93298 | -118.44848 | 3336 ft | 181 kts | 264° |
| 2026-04-26 17:04 | 33.93153 | -118.46362 | 4290 ft | 182 kts | 265° |
| 2026-04-26 17:04 | 33.93020 | -118.47892 | 4785 ft | 184 kts | 266° |
| 2026-04-26 17:04 | 33.92890 | -118.49436 | 4960 ft | 188 kts | 266° |
| 2026-04-26 17:05 | 33.92750 | -118.51125 | 5010 ft | 219 kts | 265° |
| 2026-04-26 17:05 | 33.92594 | -118.53004 | 5006 ft | 230 kts | 266° |
| 2026-04-26 17:05 | 33.92433 | -118.54937 | 5008 ft | 232 kts | 265° |
| 2026-04-26 17:05 | 33.92273 | -118.56859 | 4986 ft | 231 kts | 265° |
| 2026-04-26 17:06 | 33.92108 | -118.58854 | 4989 ft | 247 kts | 265° |
| 2026-04-26 17:06 | 33.91935 | -118.60933 | 5002 ft | 253 kts | 265° |
| 2026-04-26 17:06 | 33.91767 | -118.63033 | 5001 ft | 251 kts | 267° |
| 2026-04-26 17:06 | 33.91722 | -118.65125 | 5004 ft | 249 kts | 270° |
| 2026-04-26 17:07 | 33.91726 | -118.67222 | 5162 ft | 253 kts | 271° |
| 2026-04-26 17:07 | 33.91733 | -118.69375 | 6166 ft | 253 kts | 271° |
| 2026-04-26 17:07 | 33.91735 | -118.71466 | 7226 ft | 254 kts | 270° |
| 2026-04-26 17:07 | 33.91733 | -118.73606 | 8220 ft | 257 kts | 270° |
| 2026-04-26 17:08 | 33.91728 | -118.75766 | 9260 ft | 258 kts | 270° |
| 2026-04-26 17:08 | 33.91720 | -118.77949 | 10202 ft | 263 kts | 270° |
| 2026-04-26 17:08 | 33.91711 | -118.80230 | 10643 ft | 286 kts | 270° |
| 2026-04-26 17:08 | 33.91701 | -118.82735 | 10950 ft | 310 kts | 270° |
| 2026-04-26 17:09 | 33.91723 | -118.85360 | 11625 ft | 315 kts | 272° |
| 2026-04-26 17:09 | 33.91776 | -118.87111 | 11856 ft | 316 kts | 273° |
| 2026-04-26 17:09 | 33.91903 | -118.90663 | 11979 ft | 320 kts | 273° |
| 2026-04-26 17:09 | 33.91992 | -118.93332 | 11988 ft | 318 kts | 273° |
| 2026-04-26 17:10 | 33.92074 | -118.95987 | 11989 ft | 318 kts | 273° |
| 2026-04-26 17:10 | 33.92152 | -118.98643 | 11991 ft | 317 kts | 273° |
| 2026-04-26 17:10 | 33.92367 | -119.01276 | 11982 ft | 317 kts | 284° |
| 2026-04-26 17:10 | 33.93216 | -119.03714 | 12000 ft | 317 kts | 298° |
| 2026-04-26 17:11 | 33.94375 | -119.05980 | 11994 ft | 318 kts | 301° |
| 2026-04-26 17:11 | 33.95573 | -119.08217 | 12003 ft | 318 kts | 301° |
| 2026-04-26 17:11 | 33.96766 | -119.10463 | 12005 ft | 318 kts | 301° |
| 2026-04-26 17:11 | 33.97944 | -119.12716 | 12005 ft | 318 kts | 300° |